Time;durP1;ratioP1;P1;durP2;ratioP2;P2;SDS_P1;SDS_P2;PMS_P1;PMS_P2;Temp;Humidity;BMP_temperature;BMP_pressure;BME280_temperature;BME280_humidity;BME280_pressure;Samples;Min_cycle;Max_cycle;Signal;HPM_P1;HPM_P2
2024/03/29 00:00:37;;;;;;;;;;;;;;;7.68;63.22;98742.00;130642;1298;22547;-86
2024/03/29 00:03:38;;;;;;;;;;;;;;;7.64;63.18;98745.39;130657;1305;22563;-88
2024/03/29 00:07:31;;;;;;;;;;;;;;;;;;;;;
2024/03/29 00:15:09;;;;;;;;;;;;;;;7.46;63.71;98774.98;129686;1307;22670;-87
2024/03/29 00:18:30;;;;;;;;;;;;;;;7.43;63.83;98778.33;130138;1301;22535;-86
2024/03/29 00:22:52;;;;;;;;;;;;;;;7.41;63.94;98784.02;130074;1309;22587;-88
2024/03/29 00:26:04;;;;;;;;;;;;;;;;;;;;;
2024/03/29 00:29:46;;;;;;;;;;;;;;;;;;;;;
2024/03/29 00:33:19;;;;;;;;;;;;;;;7.18;64.47;98805.48;130180;1301;25297;-86
2024/03/29 00:37:28;;;;;;;;;;;;;;;;;;;;;
2024/03/29 00:40:41;;;;;;;;;;;;;;;7.03;65.04;98831.36;130499;1304;24417;-86
2024/03/29 00:44:50;;;;;;;;;;;;;;;6.95;65.25;98832.39;130566;1299;22962;-86
2024/03/29 00:47:48;;;;;;;;;;;;;;;6.90;65.42;98847.55;130601;1304;25431;-86
2024/03/29 00:50:52;;;;;;;;;;;;;;;6.86;65.68;98855.95;130499;1299;22680;-85
2024/03/29 00:53:54;;;;;;;;;;;;;;;6.81;65.75;98866.52;130738;1302;22717;-85
2024/03/29 00:56:55;;;;;;;;;;;;;;;6.78;66.18;98876.64;130324;1299;22568;-86
2024/03/29 00:59:58;;;;;;;;;;;;;;;6.75;66.13;98879.70;130222;1299;22551;-86
2024/03/29 01:02:59;;;;;;;;;;;;;;;6.73;66.52;98887.30;130568;1305;22551;-86
2024/03/29 01:06:00;;;;;;;;;;;;;;;6.73;66.65;98897.44;130548;1305;22611;-85
2024/03/29 01:09:01;;;;;;;;;;;;;;;6.73;66.81;98905.00;130626;1299;22536;-84
2024/03/29 01:12:01;;;;;;;;;;;;;;;6.73;66.89;98914.45;130617;1305;22585;-86
2024/03/29 01:15:02;;;;;;;;;;;;;;;6.72;67.03;98919.75;130644;1305;25247;-85
2024/03/29 01:18:05;;;;;;;;;;;;;;;6.70;67.40;98921.11;130599;1298;24665;-86
2024/03/29 01:21:08;;;;;;;;;;;;;;;6.71;67.28;98924.01;130430;1305;22577;-86
2024/03/29 01:24:09;;;;;;;;;;;;;;;6.72;67.34;98925.12;130508;1301;24237;-86
2024/03/29 01:27:10;;;;;;;;;;;;;;;6.72;67.55;98927.03;130470;1300;25243;-87
2024/03/29 01:31:02;;;;;;;;;;;;;;;6.71;67.54;98929.64;130747;1297;22541;-86
2024/03/29 01:34:12;;;;;;;;;;;;;;;6.71;67.66;98934.63;130594;1301;22567;-89
2024/03/29 01:37:12;;;;;;;;;;;;;;;6.70;67.73;98935.25;130604;1298;23168;-88
2024/03/29 01:40:13;;;;;;;;;;;;;;;6.69;67.81;98932.73;130593;1304;22577;-84
2024/03/29 01:43:14;;;;;;;;;;;;;;;6.69;67.94;98937.91;130392;1301;22701;-86
2024/03/29 01:50:25;;;;;;;;;;;;;;;6.69;68.00;98940.30;130201;1305;24405;-85
2024/03/29 01:57:42;;;;;;;;;;;;;;;6.63;67.78;98943.81;129702;1307;22589;-85
2024/03/29 02:00:48;;;;;;;;;;;;;;;6.59;68.08;98945.27;129791;1302;24239;-88
2024/03/29 02:03:51;;;;;;;;;;;;;;;6.56;68.17;98949.48;130287;1305;22573;-86
2024/03/29 02:06:51;;;;;;;;;;;;;;;6.53;67.98;98946.52;130369;1297;25438;-87
2024/03/29 02:13:45;;;;;;;;;;;;;;;6.46;68.23;98958.05;130480;1299;25968;-83
2024/03/29 02:16:46;;;;;;;;;;;;;;;6.44;68.36;98959.02;130581;1305;22635;-87
2024/03/29 02:19:46;;;;;;;;;;;;;;;6.42;68.43;98961.58;130586;1298;25410;-85
2024/03/29 02:22:56;;;;;;;;;;;;;;;6.41;68.35;98962.70;130663;1301;26176;-87
2024/03/29 02:25:58;;;;;;;;;;;;;;;6.41;68.41;98963.03;130758;1298;24239;-86
2024/03/29 02:28:59;;;;;;;;;;;;;;;6.41;68.31;98964.85;130446;1302;23266;-85
2024/03/29 02:32:00;;;;;;;;;;;;;;;6.41;68.53;98965.80;130681;1298;24231;-88
2024/03/29 02:35:00;;;;;;;;;;;;;;;6.42;68.44;98962.96;130667;1299;24350;-85
2024/03/29 02:38:01;;;;;;;;;;;;;;;6.39;68.36;98965.15;130674;1298;22515;-85
2024/03/29 02:41:02;;;;;;;;;;;;;;;6.37;68.27;98968.58;130546;1301;22550;-86
2024/03/29 02:44:02;;;;;;;;;;;;;;;6.37;68.50;98970.89;130719;1303;22603;-85
2024/03/29 02:47:23;;;;;;;;;;;;;;;6.35;68.55;98972.30;130594;1301;23385;-86
2024/03/29 02:50:24;;;;;;;;;;;;;;;6.34;68.56;98982.98;130447;1301;24783;-87
2024/03/29 02:53:27;;;;;;;;;;;;;;;6.32;69.02;98989.46;130582;1302;22575;-85
2024/03/29 02:56:27;;;;;;;;;;;;;;;6.32;69.08;98994.31;130589;1301;22570;-86
2024/03/29 02:59:28;;;;;;;;;;;;;;;6.31;69.29;99002.44;130647;1301;25040;-87
2024/03/29 03:02:28;;;;;;;;;;;;;;;6.29;69.24;99002.81;130573;1305;24102;-85
2024/03/29 03:05:29;;;;;;;;;;;;;;;6.28;69.36;99003.44;130692;1299;22577;-86
2024/03/29 03:12:28;;;;;;;;;;;;;;;6.33;69.35;99002.73;130722;1298;22633;-86
2024/03/29 03:16:45;;;;;;;;;;;;;;;6.36;69.48;99003.30;130801;1301;22531;-87
2024/03/29 03:19:41;;;;;;;;;;;;;;;;;;;;;
2024/03/29 03:22:44;;;;;;;;;;;;;;;6.39;69.17;99009.11;130585;1298;22528;-87
2024/03/29 03:25:47;;;;;;;;;;;;;;;6.40;69.14;99014.39;130416;1300;25434;-85
2024/03/29 03:28:48;;;;;;;;;;;;;;;6.41;68.90;99018.94;130592;1305;22552;-86
2024/03/29 03:31:48;;;;;;;;;;;;;;;6.39;68.94;99016.11;130740;1305;23380;-84
2024/03/29 03:34:49;;;;;;;;;;;;;;;6.39;69.21;99017.38;130494;1298;24724;-84
2024/03/29 03:37:59;;;;;;;;;;;;;;;;;;;;;
2024/03/29 03:41:10;;;;;;;;;;;;;;;6.38;69.13;99011.00;130775;1301;24089;-84
2024/03/29 03:44:10;;;;;;;;;;;;;;;6.36;69.05;99015.41;130420;1300;25019;-86
2024/03/29 03:47:11;;;;;;;;;;;;;;;6.33;68.90;99011.36;130378;1298;22591;-87
2024/03/29 03:50:12;;;;;;;;;;;;;;;6.30;68.97;99008.46;130655;1298;25801;-87
2024/03/29 03:53:12;;;;;;;;;;;;;;;6.29;68.87;99011.73;130458;1298;24862;-85
2024/03/29 03:56:22;;;;;;;;;;;;;;;6.28;69.03;99007.13;130854;1301;23469;-84
2024/03/29 03:59:23;;;;;;;;;;;;;;;6.26;68.94;99008.17;130832;1301;22539;-87
2024/03/29 04:02:23;;;;;;;;;;;;;;;6.23;68.88;99006.94;130619;1298;22645;-86
2024/03/29 04:05:25;;;;;;;;;;;;;;;6.19;68.76;99008.69;130686;1300;25281;-84
2024/03/29 04:09:18;;;;;;;;;;;;;;;;;;;;;
2024/03/29 04:16:44;;;;;;;;;;;;;;;;;;;;;
2024/03/29 04:19:55;;;;;;;;;;;;;;;6.01;68.91;99049.86;130688;1301;22772;-83
2024/03/29 04:22:56;;;;;;;;;;;;;;;5.97;69.02;99046.50;130722;1298;22537;-86
2024/03/29 04:25:58;;;;;;;;;;;;;;;5.94;68.97;99040.80;130702;1304;22548;-84
2024/03/29 04:28:58;;;;;;;;;;;;;;;5.92;69.13;99040.26;130498;1300;24290;-86
2024/03/29 04:31:59;;;;;;;;;;;;;;;5.91;69.13;99048.30;130514;1301;24720;-85
2024/03/29 04:35:03;;;;;;;;;;;;;;;5.88;69.17;99051.30;130491;1301;22590;-87
2024/03/29 04:38:04;;;;;;;;;;;;;;;5.85;69.24;99051.58;130695;1301;22601;-86
2024/03/29 04:41:05;;;;;;;;;;;;;;;5.82;69.29;99050.77;130670;1306;22558;-84
2024/03/29 04:44:07;;;;;;;;;;;;;;;5.82;69.33;99058.36;130848;1297;22547;-85
2024/03/29 04:47:07;;;;;;;;;;;;;;;5.83;69.32;99070.14;130840;1298;22561;-84
2024/03/29 04:50:18;;;;;;;;;;;;;;;5.86;69.26;99072.35;130773;1305;25420;-84
2024/03/29 04:53:22;;;;;;;;;;;;;;;5.88;69.40;99070.61;130712;1299;22571;-86
2024/03/29 04:56:22;;;;;;;;;;;;;;;5.91;69.47;99076.55;130561;1304;22566;-85
2024/03/29 04:59:23;;;;;;;;;;;;;;;5.99;69.29;99083.59;130746;1304;25886;-88
2024/03/29 05:02:23;;;;;;;;;;;;;;;6.12;69.44;99094.51;130744;1305;25433;-84
2024/03/29 05:05:24;;;;;;;;;;;;;;;6.24;69.30;99093.43;130870;1299;22577;-86
2024/03/29 05:08:25;;;;;;;;;;;;;;;6.36;69.12;99080.10;130517;1298;22579;-86
2024/03/29 05:11:37;;;;;;;;;;;;;;;6.45;69.03;99078.52;130683;1301;22567;-85
2024/03/29 05:14:37;;;;;;;;;;;;;;;6.52;68.85;99082.14;130750;1301;22542;-85
2024/03/29 05:17:40;;;;;;;;;;;;;;;6.61;68.78;99087.54;130457;1299;24398;-82
2024/03/29 05:20:46;;;;;;;;;;;;;;;6.74;68.69;99098.09;130665;1298;22666;-85
2024/03/29 05:23:47;;;;;;;;;;;;;;;6.97;68.61;99096.97;130666;1301;22752;-85
2024/03/29 05:26:48;;;;;;;;;;;;;;;7.39;68.24;99097.20;130596;1304;22572;-86
2024/03/29 05:29:51;;;;;;;;;;;;;;;7.87;67.76;99094.02;130636;1305;22537;-85
2024/03/29 05:33:52;;;;;;;;;;;;;;;;;;;;;
2024/03/29 05:45:43;;;;;;;;;;;;;;;;;;;;;
2024/03/29 05:57:27;;;;;;;;;;;;;;;10.36;60.79;99075.60;129872;1306;24454;-85
2024/03/29 06:01:03;;;;;;;;;;;;;;;10.55;60.74;99094.78;130718;1306;22604;-85
2024/03/29 06:04:52;;;;;;;;;;;;;;;10.95;60.34;99101.17;130754;1298;22602;-85
2024/03/29 06:08:40;;;;;;;;;;;;;;;;;;;;;
2024/03/29 06:12:09;;;;;;;;;;;;;;;;;;;;;
2024/03/29 06:20:20;;;;;;;;;;;;;;;12.02;56.84;99098.10;130733;1304;22661;-85
2024/03/29 06:23:30;;;;;;;;;;;;;;;11.91;55.22;99092.19;130655;1300;22532;-86
2024/03/29 06:26:59;;;;;;;;;;;;;;;11.93;55.76;99089.70;130688;1305;22669;-83
2024/03/29 06:34:22;;;;;;;;;;;;;;;;;;;;;
2024/03/29 06:38:41;;;;;;;;;;;;;;;;;;;;;
2024/03/29 06:42:19;;;;;;;;;;;;;;;;;;;;;
2024/03/29 06:46:09;;;;;;;;;;;;;;;;;;;;;
2024/03/29 06:49:47;;;;;;;;;;;;;;;;;;;;;
2024/03/29 06:53:42;;;;;;;;;;;;;;;13.71;52.28;99098.52;130557;1301;24234;-84
2024/03/29 07:01:11;;;;;;;;;;;;;;;;;;;;;
2024/03/29 07:04:51;;;;;;;;;;;;;;;;;;;;;
2024/03/29 07:08:25;;;;;;;;;;;;;;;15.23;49.27;99105.40;131194;1297;22497;-84
2024/03/29 07:12:05;;;;;;;;;;;;;;;15.07;48.88;99099.08;130754;1301;22574;-83
2024/03/29 07:15:37;;;;;;;;;;;;;;;15.25;48.70;99097.11;130757;1300;22655;-83
2024/03/29 07:19:03;;;;;;;;;;;;;;;14.89;46.95;99102.65;131016;1298;24495;-84
2024/03/29 07:22:55;;;;;;;;;;;;;;;;;;;;;
2024/03/29 07:26:35;;;;;;;;;;;;;;;;;;;;;
2024/03/29 07:30:10;;;;;;;;;;;;;;;;;;;;;
2024/03/29 07:33:51;;;;;;;;;;;;;;;13.22;48.17;99139.35;130761;1298;22616;-82
2024/03/29 07:45:32;;;;;;;;;;;;;;;;;;;;;
2024/03/29 07:48:52;;;;;;;;;;;;;;;12.09;50.20;99164.64;130316;1304;22588;-79
2024/03/29 07:56:16;;;;;;;;;;;;;;;;;;;;;
2024/03/29 07:59:55;;;;;;;;;;;;;;;12.20;50.21;99155.26;131067;1301;22658;-83
2024/03/29 08:03:36;;;;;;;;;;;;;;;;;;;;;
2024/03/29 08:06:41;;;;;;;;;;;;;;;12.43;50.39;99164.44;130799;1298;22776;-82
2024/03/29 08:09:45;;;;;;;;;;;;;;;12.44;49.25;99170.09;130809;1298;22609;-82
2024/03/29 08:13:06;;;;;;;;;;;;;;;12.34;49.69;99168.39;130691;1304;22552;-82
2024/03/29 08:20:10;;;;;;;;;;;;;;;12.56;49.51;99188.79;130156;1301;23022;-84
2024/03/29 08:23:27;;;;;;;;;;;;;;;;;;;;;
2024/03/29 08:27:09;;;;;;;;;;;;;;;;;;;;;
2024/03/29 08:30:25;;;;;;;;;;;;;;;12.77;49.65;99198.09;130276;1303;25318;-82
2024/03/29 08:34:18;;;;;;;;;;;;;;;12.92;48.70;99204.38;130345;1301;24235;-82
2024/03/29 08:37:10;;;;;;;;;;;;;;;13.15;48.69;99199.91;130197;1301;22795;-81
2024/03/29 08:40:11;;;;;;;;;;;;;;;13.38;48.10;99203.77;130385;1301;23293;-81
2024/03/29 08:43:38;;;;;;;;;;;;;;;;;;;;;
2024/03/29 08:46:42;;;;;;;;;;;;;;;13.76;48.05;99208.21;130271;1302;24271;-82
2024/03/29 08:50:35;;;;;;;;;;;;;;;;;;;;;
2024/03/29 08:54:10;;;;;;;;;;;;;;;;;;;;;
2024/03/29 08:57:42;;;;;;;;;;;;;;;14.15;46.80;99196.08;130838;1298;22612;-82
2024/03/29 09:01:19;;;;;;;;;;;;;;;14.31;46.51;99191.90;130885;1301;22534;-84
2024/03/29 09:04:41;;;;;;;;;;;;;;;14.56;46.45;99180.98;130790;1301;22544;-82
2024/03/29 09:08:04;;;;;;;;;;;;;;;14.94;46.59;99168.02;130660;1298;22538;-83
2024/03/29 09:11:10;;;;;;;;;;;;;;;15.30;45.10;99164.56;130502;1299;22551;-82
2024/03/29 09:14:23;;;;;;;;;;;;;;;15.38;45.25;99170.41;130293;1297;22537;-82
2024/03/29 09:18:06;;;;;;;;;;;;;;;;;;;;;
2024/03/29 09:21:15;;;;;;;;;;;;;;;15.48;43.65;99174.14;130705;1294;24295;-82
2024/03/29 09:25:13;;;;;;;;;;;;;;;15.41;43.90;99173.19;130819;1298;22536;-82
2024/03/29 09:29:22;;;;;;;;;;;;;;;15.36;42.98;99178.38;130631;1304;22753;-82
2024/03/29 09:32:24;;;;;;;;;;;;;;;;;;;;;
2024/03/29 09:35:58;;;;;;;;;;;;;;;;;;;;;
2024/03/29 09:39:16;;;;;;;;;;;;;;;;;;;;;
2024/03/29 09:43:15;;;;;;;;;;;;;;;16.14;42.71;99164.80;130904;1297;22538;-83
2024/03/29 09:47:19;;;;;;;;;;;;;;;16.44;40.92;99159.66;130790;1297;22549;-82
2024/03/29 09:50:31;;;;;;;;;;;;;;;16.37;40.85;99153.53;130782;1298;23278;-85
2024/03/29 09:53:54;;;;;;;;;;;;;;;16.61;41.28;99152.55;130579;1298;24516;-84
2024/03/29 09:57:09;;;;;;;;;;;;;;;;;;;;;
2024/03/29 10:00:17;;;;;;;;;;;;;;;16.98;40.15;99146.64;130840;1298;22576;-83
2024/03/29 10:03:56;;;;;;;;;;;;;;;;;;;;;
2024/03/29 10:07:15;;;;;;;;;;;;;;;;;;;;;
2024/03/29 10:11:23;;;;;;;;;;;;;;;;;;;;;
2024/03/29 10:15:00;;;;;;;;;;;;;;;;;;;;;
2024/03/29 10:18:44;;;;;;;;;;;;;;;;;;;;;
2024/03/29 10:22:33;;;;;;;;;;;;;;;17.33;36.23;99115.83;130709;1297;24274;-83
2024/03/29 10:26:19;;;;;;;;;;;;;;;;;;;;;
2024/03/29 10:29:27;;;;;;;;;;;;;;;17.32;34.90;99104.88;130830;1298;23021;-82
2024/03/29 10:32:54;;;;;;;;;;;;;;;17.40;34.48;99106.23;130492;1301;325453;-83
2024/03/29 10:37:29;;;;;;;;;;;;;;;17.40;32.61;99095.19;130926;1301;22650;-83
2024/03/29 10:40:44;;;;;;;;;;;;;;;17.38;33.85;99097.55;130893;1298;22541;-83
2024/03/29 10:44:24;;;;;;;;;;;;;;;;;;;;;
2024/03/29 10:52:04;;;;;;;;;;;;;;;;;;;;;
2024/03/29 10:55:57;;;;;;;;;;;;;;;;;;;;;
2024/03/29 10:59:47;;;;;;;;;;;;;;;17.94;33.42;99052.92;130955;1298;22583;-83
2024/03/29 11:03:43;;;;;;;;;;;;;;;;;;;;;
2024/03/29 11:06:54;;;;;;;;;;;;;;;17.91;34.11;99043.38;130844;1300;22575;-82
2024/03/29 11:10:13;;;;;;;;;;;;;;;18.04;34.01;99035.45;130624;1301;22576;-86
2024/03/29 11:13:57;;;;;;;;;;;;;;;;;;;;;
2024/03/29 11:17:59;;;;;;;;;;;;;;;;;;;;;
2024/03/29 11:25:27;;;;;;;;;;;;;;;18.01;32.89;99037.90;130046;1306;24423;-84
2024/03/29 11:29:55;;;;;;;;;;;;;;;17.76;32.00;99044.23;130221;1305;22611;-86
2024/03/29 11:32:55;;;;;;;;;;;;;;;17.43;32.12;99043.70;130747;1298;22576;-83
2024/03/29 11:36:29;;;;;;;;;;;;;;;17.32;32.76;99044.98;130885;1298;26684;-82
2024/03/29 11:44:51;;;;;;;;;;;;;;;;;;;;;
2024/03/29 11:48:04;;;;;;;;;;;;;;;17.89;33.17;99036.08;130019;1301;22603;-84
2024/03/29 11:51:34;;;;;;;;;;;;;;;;;;;;;
2024/03/29 11:54:53;;;;;;;;;;;;;;;18.37;33.15;99045.23;130960;1298;24328;-85
2024/03/29 11:57:57;;;;;;;;;;;;;;;18.49;32.43;99048.27;130800;1298;22939;-87
2024/03/29 12:01:57;;;;;;;;;;;;;;;;;;;;;
2024/03/29 12:08:58;;;;;;;;;;;;;;;18.43;32.65;99030.89;130739;1301;22532;-85
2024/03/29 12:12:30;;;;;;;;;;;;;;;;;;;;;
2024/03/29 12:15:34;;;;;;;;;;;;;;;18.54;31.27;99042.38;131044;1305;22580;-87
2024/03/29 12:19:00;;;;;;;;;;;;;;;18.37;31.19;99035.90;130951;1298;24244;-85
2024/03/29 12:22:36;;;;;;;;;;;;;;;;;;;;;
2024/03/29 12:26:01;;;;;;;;;;;;;;;18.49;31.15;99012.71;130961;1298;22541;-86
2024/03/29 12:29:26;;;;;;;;;;;;;;;18.50;32.04;99020.19;130790;1297;24254;-85
2024/03/29 12:33:08;;;;;;;;;;;;;;;;;;;;;
2024/03/29 12:44:32;;;;;;;;;;;;;;;18.46;31.21;99005.73;129180;1311;22547;-86
2024/03/29 12:47:38;;;;;;;;;;;;;;;18.34;31.30;98993.45;129731;1307;25254;-85
2024/03/29 12:50:43;;;;;;;;;;;;;;;18.38;31.46;98994.39;130415;1305;24297;-85
2024/03/29 12:53:48;;;;;;;;;;;;;;;18.49;31.89;98984.93;130782;1297;22830;-85
2024/03/29 12:57:28;;;;;;;;;;;;;;;;;;;;;
2024/03/29 13:01:58;;;;;;;;;;;;;;;18.49;31.01;98992.73;130880;1302;22532;-85
2024/03/29 13:04:57;;;;;;;;;;;;;;;18.49;31.44;98984.46;130675;1297;22537;-86
2024/03/29 13:08:36;;;;;;;;;;;;;;;18.49;31.11;98990.04;130813;1299;22601;-86
2024/03/29 13:11:48;;;;;;;;;;;;;;;18.41;31.26;98990.77;130670;1301;22554;-85
2024/03/29 13:19:38;;;;;;;;;;;;;;;;;;;;;
2024/03/29 13:23:38;;;;;;;;;;;;;;;;;;;;;
2024/03/29 13:26:59;;;;;;;;;;;;;;;18.11;31.65;98982.69;131087;1304;24376;-88
2024/03/29 13:30:31;;;;;;;;;;;;;;;18.06;31.76;98968.48;130862;1301;22620;-87
2024/03/29 13:33:35;;;;;;;;;;;;;;;18.11;31.86;98961.95;130801;1299;22508;-86
2024/03/29 13:38:01;;;;;;;;;;;;;;;18.10;32.12;98960.43;130003;1306;23280;-86
2024/03/29 13:41:03;;;;;;;;;;;;;;;18.14;32.28;98959.44;130092;1305;22699;-87
2024/03/29 13:48:36;;;;;;;;;;;;;;;18.21;32.65;98965.13;130061;1307;23404;-87
2024/03/29 13:52:10;;;;;;;;;;;;;;;18.25;32.28;98972.55;130439;1298;22535;-86
2024/03/29 13:55:09;;;;;;;;;;;;;;;18.15;32.66;98980.17;130907;1306;24055;-85
2024/03/29 13:58:33;;;;;;;;;;;;;;;;;;;;;
2024/03/29 14:05:45;;;;;;;;;;;;;;;18.02;32.46;98978.35;130663;1299;22484;-87
2024/03/29 14:09:09;;;;;;;;;;;;;;;17.88;32.30;98975.11;130517;1298;23890;-83
2024/03/29 14:12:25;;;;;;;;;;;;;;;;;;;;;
2024/03/29 14:19:54;;;;;;;;;;;;;;;;;;;;;
2024/03/29 14:31:50;;;;;;;;;;;;;;;17.86;31.95;98956.30;129367;1312;22667;-87
2024/03/29 14:39:49;;;;;;;;;;;;;;;;;;;;;
2024/03/29 14:43:58;;;;;;;;;;;;;;;17.98;32.97;98940.13;130588;1298;22588;-86
2024/03/29 14:47:02;;;;;;;;;;;;;;;17.98;33.38;98932.23;130563;1306;23306;-86
2024/03/29 14:50:40;;;;;;;;;;;;;;;17.96;33.16;98929.35;130556;1298;22538;-86
2024/03/29 14:54:04;;;;;;;;;;;;;;;;;;;;;
2024/03/29 15:01:44;;;;;;;;;;;;;;;17.98;33.31;98920.85;130739;1298;25902;-85
2024/03/29 15:05:36;;;;;;;;;;;;;;;;;;;;;
2024/03/29 15:13:40;;;;;;;;;;;;;;;17.98;33.49;98925.84;130459;1301;24334;-85
2024/03/29 15:16:56;;;;;;;;;;;;;;;;;;;;;
2024/03/29 15:24:54;;;;;;;;;;;;;;;17.65;34.96;98924.19;129876;1308;22555;-85
2024/03/29 15:32:26;;;;;;;;;;;;;;;17.63;35.38;98915.83;130360;1303;25502;-86
2024/03/29 15:35:45;;;;;;;;;;;;;;;;;;;;;
2024/03/29 15:40:48;;;;;;;;;;;;;;;;;;;;;
2024/03/29 15:43:46;;;;;;;;;;;;;;;;;;;;;
2024/03/29 15:47:21;;;;;;;;;;;;;;;;;;;;;
2024/03/29 15:54:57;;;;;;;;;;;;;;;;;;;;;
2024/03/29 16:10:21;;;;;;;;;;;;;;;;;;;;;
2024/03/29 16:14:24;;;;;;;;;;;;;;;16.79;41.13;98911.14;130886;1305;22899;-85
2024/03/29 16:28:08;;;;;;;;;;;;;;;16.68;41.91;98920.73;130566;1305;23919;-84
2024/03/29 16:35:33;;;;;;;;;;;;;;;16.40;42.72;98912.80;129370;1300;23190;-86
2024/03/29 16:38:55;;;;;;;;;;;;;;;16.28;43.00;98911.08;130310;1298;23282;-86
2024/03/29 16:42:14;;;;;;;;;;;;;;;16.17;43.23;98905.84;130817;1304;23927;-84
2024/03/29 16:45:28;;;;;;;;;;;;;;;16.06;43.65;98906.60;130337;1304;22591;-87
2024/03/29 16:49:20;;;;;;;;;;;;;;;15.90;44.02;98907.68;130612;1304;22545;-85
2024/03/29 16:56:46;;;;;;;;;;;;;;;;;;;;;
2024/03/29 16:59:56;;;;;;;;;;;;;;;15.55;45.07;98929.13;130154;1306;22586;-84
2024/03/29 17:03:00;;;;;;;;;;;;;;;15.50;45.33;98934.23;130556;1306;22665;-85
2024/03/29 17:06:06;;;;;;;;;;;;;;;15.43;45.58;98938.34;130815;1302;22556;-87
2024/03/29 17:09:11;;;;;;;;;;;;;;;15.37;45.82;98939.46;130395;1301;25486;-85
2024/03/29 17:12:32;;;;;;;;;;;;;;;;;;;;;
2024/03/29 17:15:35;;;;;;;;;;;;;;;15.29;46.04;98933.90;130699;1298;24272;-87
2024/03/29 17:18:36;;;;;;;;;;;;;;;15.23;46.26;98932.90;130621;1306;22621;-86
2024/03/29 17:22:09;;;;;;;;;;;;;;;15.16;46.48;98931.63;129832;1310;22550;-85
2024/03/29 17:25:54;;;;;;;;;;;;;;;;;;;;;
2024/03/29 17:29:26;;;;;;;;;;;;;;;;;;;;;
2024/03/29 17:45:26;;;;;;;;;;;;;;;;;;;;;
2024/03/29 17:52:47;;;;;;;;;;;;;;;14.54;49.85;98931.08;129655;1306;24304;-85
2024/03/29 17:55:48;;;;;;;;;;;;;;;14.50;50.01;98926.62;129597;1298;22669;-85
2024/03/29 17:59:09;;;;;;;;;;;;;;;14.46;50.23;98931.87;130284;1306;22562;-86
2024/03/29 18:06:38;;;;;;;;;;;;;;;;;;;;;
2024/03/29 18:10:21;;;;;;;;;;;;;;;14.30;51.50;98932.39;130447;1305;22579;-86
2024/03/29 18:14:00;;;;;;;;;;;;;;;;;;;;;
2024/03/29 18:21:22;;;;;;;;;;;;;;;14.21;52.23;98937.61;130487;1306;23371;-87
2024/03/29 18:29:20;;;;;;;;;;;;;;;14.15;52.92;98934.17;128773;1318;24809;-87
2024/03/29 18:32:31;;;;;;;;;;;;;;;14.13;53.41;98937.42;128628;1307;22539;-86
2024/03/29 18:40:38;;;;;;;;;;;;;;;;;;;;;
2024/03/29 18:44:15;;;;;;;;;;;;;;;;;;;;;
2024/03/29 19:00:19;;;;;;;;;;;;;;;;;;;;;
2024/03/29 19:03:41;;;;;;;;;;;;;;;13.87;55.53;98928.33;130637;1304;22576;-84
2024/03/29 19:06:53;;;;;;;;;;;;;;;13.84;55.56;98937.45;130702;1307;22564;-83
2024/03/29 19:09:58;;;;;;;;;;;;;;;13.81;55.74;98945.66;130393;1304;23380;-87
2024/03/29 19:13:10;;;;;;;;;;;;;;;;;;;;;
2024/03/29 19:16:52;;;;;;;;;;;;;;;;;;;;;
2024/03/29 19:20:37;;;;;;;;;;;;;;;;;;;;;
2024/03/29 19:24:54;;;;;;;;;;;;;;;;;;;;;
2024/03/29 19:28:41;;;;;;;;;;;;;;;;;;;;;
2024/03/29 19:32:01;;;;;;;;;;;;;;;;;;;;;
2024/03/29 19:35:35;;;;;;;;;;;;;;;;;;;;;
2024/03/29 19:39:59;;;;;;;;;;;;;;;;;;;;;
2024/03/29 19:43:58;;;;;;;;;;;;;;;13.68;58.08;98950.90;129646;1310;23038;-84
2024/03/29 19:47:55;;;;;;;;;;;;;;;;;;;;;
2024/03/29 19:50:56;;;;;;;;;;;;;;;13.70;58.14;98949.45;129926;1306;22754;-87
2024/03/29 19:53:58;;;;;;;;;;;;;;;13.68;58.11;98951.27;129857;1306;22726;-88
2024/03/29 19:56:58;;;;;;;;;;;;;;;13.63;58.19;98957.65;130556;1299;25314;-87
2024/03/29 20:00:03;;;;;;;;;;;;;;;13.53;58.36;98959.96;130674;1301;22506;-86
2024/03/29 20:03:32;;;;;;;;;;;;;;;13.46;58.29;98962.02;130581;1304;22652;-89
2024/03/29 20:07:06;;;;;;;;;;;;;;;;;;;;;
2024/03/29 20:15:32;;;;;;;;;;;;;;;13.24;58.70;98971.20;130745;1302;22538;-86
2024/03/29 20:19:05;;;;;;;;;;;;;;;;;;;;;
2024/03/29 20:22:12;;;;;;;;;;;;;;;13.15;59.15;98953.48;131024;1298;24331;-85
2024/03/29 20:33:47;;;;;;;;;;;;;;;;;;;;;
2024/03/29 20:37:05;;;;;;;;;;;;;;;12.47;60.16;98962.08;130595;1305;24237;-85
2024/03/29 20:40:18;;;;;;;;;;;;;;;;;;;;;
2024/03/29 20:43:52;;;;;;;;;;;;;;;12.18;60.88;98968.50;130977;1298;22577;-85
2024/03/29 20:47:02;;;;;;;;;;;;;;;12.07;61.17;98967.71;130655;1298;22865;-87
2024/03/29 20:50:27;;;;;;;;;;;;;;;11.99;61.49;98971.66;130933;1301;22600;-86
2024/03/29 20:53:35;;;;;;;;;;;;;;;11.92;61.73;98970.04;130789;1298;25428;-85
2024/03/29 20:56:36;;;;;;;;;;;;;;;11.88;62.04;98964.63;130679;1304;22594;-87
2024/03/29 21:00:01;;;;;;;;;;;;;;;11.87;62.23;98961.03;130509;1305;22604;-87
2024/03/29 21:07:04;;;;;;;;;;;;;;;11.88;62.41;98963.84;130888;1298;22533;-84
2024/03/29 21:10:37;;;;;;;;;;;;;;;11.85;62.61;98963.73;130708;1304;24277;-86
2024/03/29 21:13:40;;;;;;;;;;;;;;;11.75;62.87;98955.14;130540;1302;24244;-84
2024/03/29 21:17:10;;;;;;;;;;;;;;;11.65;63.40;98961.35;130593;1305;22657;-86
2024/03/29 21:20:33;;;;;;;;;;;;;;;11.57;63.88;98969.30;130997;1298;25430;-86
2024/03/29 21:24:07;;;;;;;;;;;;;;;;;;;;;
2024/03/29 21:27:33;;;;;;;;;;;;;;;11.44;64.67;98978.50;130813;1302;22641;-85
2024/03/29 21:30:48;;;;;;;;;;;;;;;;;;;;;
2024/03/29 21:33:54;;;;;;;;;;;;;;;11.46;65.15;98970.98;130624;1297;22623;-85
2024/03/29 21:36:55;;;;;;;;;;;;;;;11.48;65.47;98968.08;130390;1294;22609;-86
2024/03/29 21:40:35;;;;;;;;;;;;;;;;;;;;;
2024/03/29 21:44:19;;;;;;;;;;;;;;;11.50;66.14;98970.91;130473;1301;22552;-89
2024/03/29 21:48:14;;;;;;;;;;;;;;;11.55;65.90;98969.25;130427;1298;25323;-87
2024/03/29 21:52:39;;;;;;;;;;;;;;;11.55;65.98;98969.09;130828;1301;22627;-86
2024/03/29 21:56:08;;;;;;;;;;;;;;;;;;;;;
2024/03/29 21:59:26;;;;;;;;;;;;;;;;;;;;;
2024/03/29 22:03:17;;;;;;;;;;;;;;;;;;;;;
2024/03/29 22:06:58;;;;;;;;;;;;;;;;;;;;;
2024/03/29 22:10:42;;;;;;;;;;;;;;;;;;;;;
2024/03/29 22:18:27;;;;;;;;;;;;;;;;;;;;;
2024/03/29 22:22:44;;;;;;;;;;;;;;;11.49;67.73;98972.42;130933;1298;22650;-84
2024/03/29 22:26:17;;;;;;;;;;;;;;;;;;;;;
2024/03/29 22:29:48;;;;;;;;;;;;;;;;;;;;;
2024/03/29 22:37:32;;;;;;;;;;;;;;;11.34;68.50;98971.11;130605;1299;24637;-85
2024/03/29 22:41:35;;;;;;;;;;;;;;;;;;;;;
2024/03/29 22:53:34;;;;;;;;;;;;;;;;;;;;;
2024/03/29 22:58:00;;;;;;;;;;;;;;;11.33;70.06;98980.05;130624;1298;22542;-85
2024/03/29 23:01:20;;;;;;;;;;;;;;;;;;;;;
2024/03/29 23:09:04;;;;;;;;;;;;;;;;;;;;;
2024/03/29 23:16:40;;;;;;;;;;;;;;;11.35;71.47;98982.02;129940;1305;25490;-84
2024/03/29 23:24:12;;;;;;;;;;;;;;;;;;;;;
2024/03/29 23:27:28;;;;;;;;;;;;;;;11.37;72.10;98983.25;130511;1298;22546;-86
2024/03/29 23:30:29;;;;;;;;;;;;;;;11.41;72.27;98982.45;130934;1300;22545;-84
2024/03/29 23:33:30;;;;;;;;;;;;;;;11.43;72.54;98980.90;130792;1301;23337;-84
2024/03/29 23:36:31;;;;;;;;;;;;;;;11.44;72.38;98983.77;131002;1305;25299;-85
2024/03/29 23:39:33;;;;;;;;;;;;;;;11.44;72.21;98988.05;130887;1300;22548;-83
2024/03/29 23:43:19;;;;;;;;;;;;;;;11.40;72.02;98985.02;130615;1305;25247;-87
2024/03/29 23:46:17;;;;;;;;;;;;;;;11.34;71.93;98981.34;130982;1298;22758;-86
2024/03/29 23:49:26;;;;;;;;;;;;;;;11.33;72.38;98975.04;130851;1299;22516;-85
2024/03/29 23:52:39;;;;;;;;;;;;;;;;;;;;;
2024/03/29 23:56:35;;;;;;;;;;;;;;;;;;;;;
